createdAt,value
2023-04-10T00:01:56.606Z,2.98
2023-04-10T00:04:23.446Z,3.01
2023-04-10T00:06:50.124Z,3.02
2023-04-10T00:09:16.726Z,3.07
2023-04-10T00:11:43.587Z,3.10
2023-04-10T00:14:10.465Z,3.05
2023-04-10T00:16:37.154Z,3.18
2023-04-10T00:19:03.818Z,3.15
2023-04-10T00:21:30.516Z,3.11
2023-04-10T00:23:57.258Z,3.02
2023-04-10T00:26:23.944Z,2.93
2023-04-10T00:28:50.638Z,2.86
2023-04-10T00:31:17.340Z,2.76
2023-04-10T00:33:44.015Z,2.86
2023-04-10T00:36:10.679Z,2.91
2023-04-10T00:38:37.435Z,2.90
2023-04-10T00:41:04.307Z,2.97
2023-04-10T00:43:31.427Z,2.99
2023-04-10T00:45:58.233Z,2.84
2023-04-10T00:48:25.627Z,2.88
2023-04-10T00:50:52.570Z,2.98
2023-04-10T00:53:19.448Z,2.95
2023-04-10T00:55:47.151Z,2.75
2023-04-10T00:58:14.006Z,2.65
2023-04-10T01:00:42.067Z,2.55
2023-04-10T01:03:09.668Z,2.53
2023-04-10T01:05:44.575Z,2.48
2023-04-10T01:08:32.646Z,2.38
2023-04-10T01:11:10.351Z,2.37
2023-04-10T01:14:18.178Z,2.50
2023-04-10T01:16:55.710Z,2.47
2023-04-10T01:19:34.421Z,2.41
2023-04-10T01:22:03.940Z,2.55
2023-04-10T01:24:50.656Z,2.57
2023-04-10T01:27:37.024Z,2.45
2023-04-10T01:30:06.840Z,2.44
2023-04-10T01:32:36.456Z,2.58
2023-04-10T01:35:07.567Z,2.56
2023-04-10T01:37:38.820Z,2.50
2023-04-10T01:40:10.443Z,2.47
2023-04-10T01:42:45.260Z,2.58
2023-04-10T01:45:17.632Z,2.65
2023-04-10T01:47:44.719Z,2.59
2023-04-10T01:50:12.221Z,2.57
2023-04-10T01:52:40.213Z,2.76
2023-04-10T01:55:08.507Z,2.59
2023-04-10T01:57:35.160Z,2.55
2023-04-10T02:00:02.742Z,2.51
2023-04-10T02:02:33.609Z,2.40
2023-04-10T02:05:01.073Z,2.38
2023-04-10T02:07:45.484Z,2.50
2023-04-10T02:10:14.872Z,2.56
2023-04-10T02:12:53.803Z,2.58
2023-04-10T02:15:23.668Z,2.52
2023-04-10T02:17:53.011Z,2.35
2023-04-10T02:20:20.520Z,2.19
2023-04-10T02:22:47.499Z,2.20
2023-04-10T02:25:14.448Z,2.10
2023-04-10T02:27:41.912Z,1.93
2023-04-10T02:30:09.174Z,2.00
2023-04-10T02:32:35.871Z,2.06
2023-04-10T02:35:03.057Z,2.18
2023-04-10T02:37:30.377Z,2.26
2023-04-10T02:39:57.017Z,2.06
2023-04-10T02:42:23.709Z,2.01
2023-04-10T02:44:50.398Z,2.09
2023-04-10T02:47:17.083Z,2.11
2023-04-10T02:49:43.719Z,2.03
2023-04-10T02:52:10.337Z,2.10
2023-04-10T02:54:36.963Z,2.02
2023-04-10T02:57:03.606Z,2.11
2023-04-10T02:59:30.387Z,2.26
2023-04-10T03:01:57.077Z,2.09
2023-04-10T03:04:23.833Z,2.00
2023-04-10T03:06:50.635Z,2.01
2023-04-10T03:09:17.238Z,2.01
2023-04-10T03:11:43.836Z,2.04
2023-04-10T03:14:10.476Z,2.06
2023-04-10T03:16:37.263Z,2.00
2023-04-10T03:19:04.273Z,2.10
2023-04-10T03:21:31.111Z,2.16
2023-04-10T03:23:57.721Z,2.20
2023-04-10T03:26:24.390Z,2.17
2023-04-10T03:28:51.106Z,2.16
2023-04-10T03:31:18.090Z,2.16
2023-04-10T03:33:44.933Z,2.24
2023-04-10T03:36:11.736Z,2.13
2023-04-10T03:38:38.450Z,2.14
2023-04-10T03:41:05.396Z,2.17
2023-04-10T03:43:32.300Z,2.17
2023-04-10T03:45:59.071Z,2.17
2023-04-10T03:48:25.739Z,2.16
2023-04-10T03:50:52.392Z,2.09
2023-04-10T03:53:19.037Z,2.01
2023-04-10T03:55:45.750Z,2.03
2023-04-10T03:58:12.372Z,1.99
2023-04-10T04:00:40.373Z,1.81
2023-04-10T04:03:07.298Z,1.80
2023-04-10T04:05:34.143Z,1.78
2023-04-10T04:08:00.782Z,1.80
2023-04-10T04:10:27.385Z,1.76
2023-04-10T04:12:54.027Z,1.71
2023-04-10T04:15:20.808Z,1.72
2023-04-10T04:17:47.433Z,1.84
2023-04-10T04:20:14.078Z,1.72
2023-04-10T04:22:40.838Z,1.61
2023-04-10T04:25:08.298Z,1.75
2023-04-10T04:27:34.946Z,1.78
2023-04-10T04:30:01.717Z,1.68
2023-04-10T04:32:28.464Z,1.56
2023-04-10T04:34:55.473Z,1.60
2023-04-10T04:37:22.100Z,1.62
2023-04-10T04:39:48.695Z,1.65
2023-04-10T04:42:15.350Z,1.71
2023-04-10T04:44:41.983Z,1.80
2023-04-10T04:47:08.578Z,1.81
2023-04-10T04:49:35.158Z,1.68
2023-04-10T04:52:01.797Z,1.55
2023-04-10T04:54:28.405Z,1.65
2023-04-10T04:56:55.052Z,1.77
2023-04-10T04:59:21.669Z,1.51
2023-04-10T05:01:51.223Z,1.58
2023-04-10T05:04:18.160Z,1.50
2023-04-10T05:06:44.897Z,1.59
2023-04-10T05:09:11.496Z,1.69
2023-04-10T05:11:38.134Z,1.64
2023-04-10T05:14:05.678Z,1.67
2023-04-10T05:16:32.348Z,1.58
2023-04-10T05:18:59.085Z,1.59
2023-04-10T05:21:25.767Z,1.71
2023-04-10T05:23:52.389Z,1.66
2023-04-10T05:26:18.997Z,1.74
2023-04-10T05:28:45.671Z,1.77
2023-04-10T05:31:12.311Z,1.80
2023-04-10T05:33:39.006Z,1.73
2023-04-10T05:36:06.008Z,1.73
2023-04-10T05:38:32.732Z,1.89
2023-04-10T05:40:59.363Z,1.85
2023-04-10T05:43:26.021Z,2.01
2023-04-10T05:45:52.709Z,2.01
2023-04-10T05:48:19.553Z,2.05
2023-04-10T05:50:46.899Z,2.08
2023-04-10T05:53:14.830Z,2.24
2023-04-10T05:55:41.480Z,2.44
2023-04-10T05:58:08.162Z,2.66
2023-04-10T06:00:34.875Z,2.90
2023-04-10T06:03:01.719Z,2.75
2023-04-10T06:05:28.501Z,2.86
2023-04-10T06:07:57.556Z,2.85
2023-04-10T06:10:24.900Z,3.03
2023-04-10T06:12:51.542Z,3.26
2023-04-10T06:15:18.255Z,3.23
2023-04-10T06:17:44.892Z,3.33
2023-04-10T06:20:12.107Z,3.40
2023-04-10T06:22:38.898Z,3.45
2023-04-10T06:25:05.945Z,3.58
2023-04-10T06:27:34.454Z,3.71
2023-04-10T06:30:01.688Z,3.85
2023-04-10T06:32:28.510Z,3.93
2023-04-10T06:34:55.200Z,4.20
2023-04-10T06:37:28.080Z,4.44
2023-04-10T06:40:03.803Z,4.44
2023-04-10T06:42:30.531Z,4.60
2023-04-10T06:44:57.392Z,4.68
2023-04-10T06:47:24.144Z,4.98
2023-04-10T06:49:50.817Z,5.08
2023-04-10T06:52:17.927Z,5.20
2023-04-10T06:54:44.672Z,5.27
2023-04-10T06:57:11.315Z,5.40
2023-04-10T06:59:37.956Z,5.36
2023-04-10T07:02:04.773Z,5.59
2023-04-10T07:04:32.002Z,5.78
2023-04-10T07:06:58.629Z,5.87
2023-04-10T07:09:30.357Z,5.92
2023-04-10T07:11:57.317Z,6.07
2023-04-10T07:14:24.032Z,6.24
2023-04-10T07:16:50.702Z,6.35
2023-04-10T07:19:17.512Z,6.46
2023-04-10T07:21:44.139Z,6.56
2023-04-10T07:24:10.789Z,6.74
2023-04-10T07:26:37.394Z,6.90
2023-04-10T07:29:04.079Z,7.19
2023-04-10T07:31:31.014Z,7.20
2023-04-10T07:33:57.683Z,7.34
2023-04-10T07:36:24.367Z,7.36
2023-04-10T07:38:51.007Z,7.52
2023-04-10T07:41:17.657Z,7.61
2023-04-10T07:43:44.364Z,7.79
2023-04-10T07:46:11.108Z,7.78
2023-04-10T07:48:37.826Z,7.99
2023-04-10T07:51:04.956Z,8.30
2023-04-10T07:53:31.544Z,8.38
2023-04-10T07:55:58.167Z,8.39
2023-04-10T07:58:24.802Z,8.51
2023-04-10T08:00:51.630Z,8.56
2023-04-10T08:03:18.638Z,8.65
2023-04-10T08:05:45.538Z,8.93
2023-04-10T08:08:12.422Z,8.83
2023-04-10T08:10:39.214Z,8.96
2023-04-10T08:13:06.376Z,8.94
2023-04-10T08:15:33.604Z,9.07
2023-04-10T08:18:00.335Z,9.04
2023-04-10T08:20:28.002Z,9.05
2023-04-10T08:22:55.293Z,9.43
2023-04-10T08:25:24.093Z,9.57
2023-04-10T08:27:50.948Z,9.60
2023-04-10T08:30:17.582Z,9.66
2023-04-10T08:32:44.280Z,9.60
2023-04-10T08:35:10.914Z,9.76
2023-04-10T08:37:37.646Z,9.99
2023-04-10T08:40:04.700Z,10.01
2023-04-10T08:42:31.709Z,10.53
2023-04-10T08:44:59.203Z,10.66
2023-04-10T08:47:28.342Z,10.56
2023-04-10T08:49:57.739Z,10.46
2023-04-10T08:52:28.355Z,10.53
2023-04-10T08:54:56.825Z,10.57
2023-04-10T08:57:23.925Z,11.15
2023-04-10T08:59:51.740Z,11.22
2023-04-10T09:02:19.221Z,11.23
2023-04-10T09:04:53.524Z,11.00
2023-04-10T09:07:20.201Z,11.08
2023-04-10T09:09:49.277Z,11.09
2023-04-10T09:12:16.632Z,11.07
2023-04-10T09:14:43.727Z,11.20
2023-04-10T09:17:16.373Z,11.47
2023-04-10T09:19:45.300Z,11.64
2023-04-10T09:22:12.173Z,11.77
2023-04-10T09:24:40.656Z,11.55
2023-04-10T09:27:07.551Z,11.53
2023-04-10T09:29:45.456Z,11.47
2023-04-10T09:32:12.703Z,11.49
2023-04-10T09:34:57.368Z,11.45
2023-04-10T09:37:33.380Z,11.56
2023-04-10T09:40:00.496Z,11.50
2023-04-10T09:42:32.253Z,11.58
2023-04-10T09:45:00.225Z,11.72
2023-04-10T09:47:27.914Z,11.53
2023-04-10T09:49:59.314Z,11.79
2023-04-10T09:52:36.276Z,11.73
2023-04-10T09:55:04.766Z,11.94
2023-04-10T09:57:33.405Z,12.02
2023-04-10T10:00:02.014Z,11.73
2023-04-10T10:02:30.290Z,11.90
2023-04-10T10:04:59.235Z,11.84
2023-04-10T10:07:26.765Z,11.85
2023-04-10T10:09:53.471Z,11.85
2023-04-10T10:12:28.981Z,12.05
2023-04-10T10:15:30.746Z,12.24
2023-04-10T10:18:18.984Z,11.92
2023-04-10T10:20:46.255Z,12.23
2023-04-10T10:23:14.011Z,11.83
2023-04-10T10:25:41.999Z,11.90
2023-04-10T10:28:13.365Z,12.00
2023-04-10T10:30:40.581Z,11.96
2023-04-10T10:33:07.983Z,11.98
2023-04-10T10:35:36.096Z,12.11
2023-04-10T10:38:04.288Z,12.03
2023-04-10T10:41:03.406Z,12.36
2023-04-10T10:44:00.949Z,12.47
2023-04-10T10:47:06.650Z,12.37
2023-04-10T10:49:55.840Z,11.80
2023-04-10T10:52:41.263Z,12.11
2023-04-10T10:55:22.990Z,12.09
2023-04-10T10:57:52.556Z,12.06
2023-04-10T11:00:24.215Z,11.90
2023-04-10T11:03:09.124Z,11.67
2023-04-10T11:05:53.615Z,11.84
2023-04-10T11:08:40.927Z,11.73
2023-04-10T11:11:09.900Z,11.61
2023-04-10T11:14:01.630Z,11.63
2023-04-10T11:16:31.125Z,11.68
2023-04-10T11:19:12.833Z,11.63
2023-04-10T11:22:01.300Z,11.79
2023-04-10T11:24:28.197Z,11.59
2023-04-10T11:26:55.760Z,11.61
2023-04-10T11:29:28.337Z,11.47
2023-04-10T11:31:59.055Z,11.51
2023-04-10T11:34:25.860Z,11.53
2023-04-10T11:36:52.500Z,11.65
2023-04-10T11:39:19.465Z,11.50
2023-04-10T11:41:53.546Z,11.65
2023-04-10T11:44:26.111Z,11.71
2023-04-10T11:46:53.722Z,11.85
2023-04-10T11:49:22.524Z,11.46
2023-04-10T11:51:50.751Z,11.43
2023-04-10T11:54:19.682Z,11.68
2023-04-10T11:57:00.234Z,11.56
2023-04-10T11:59:27.674Z,11.35
2023-04-10T12:02:12.512Z,11.50
2023-04-10T12:04:39.358Z,11.31
2023-04-10T12:07:06.413Z,11.16
2023-04-10T12:09:33.223Z,11.22
2023-04-10T12:12:01.876Z,11.15
2023-04-10T12:14:33.848Z,11.25
2023-04-10T12:17:02.528Z,11.15
2023-04-10T12:19:30.012Z,11.12
2023-04-10T12:21:59.006Z,11.12
2023-04-10T12:24:43.359Z,10.99
2023-04-10T12:27:27.101Z,10.76
2023-04-10T12:29:55.647Z,10.86
2023-04-10T12:32:23.394Z,11.09
2023-04-10T12:34:57.542Z,10.76
2023-04-10T12:37:52.764Z,10.82
2023-04-10T12:40:19.415Z,10.87
2023-04-10T12:42:46.236Z,10.89
2023-04-10T12:45:12.891Z,11.10
2023-04-10T12:47:50.827Z,11.61
2023-04-10T12:50:19.253Z,11.62
2023-04-10T12:52:48.185Z,11.57
2023-04-10T12:55:20.002Z,11.32
2023-04-10T12:57:48.311Z,11.64
2023-04-10T13:00:17.257Z,11.67
2023-04-10T13:02:45.156Z,11.52
2023-04-10T13:05:12.075Z,11.58
2023-04-10T13:07:42.255Z,11.73
2023-04-10T13:10:09.229Z,11.52
2023-04-10T13:12:36.050Z,11.55
2023-04-10T13:15:02.632Z,11.61
2023-04-10T13:17:29.728Z,11.67
2023-04-10T13:19:56.447Z,11.63
2023-04-10T13:22:23.170Z,11.42
2023-04-10T13:24:49.815Z,11.23
2023-04-10T13:27:16.659Z,11.32
2023-04-10T13:29:43.581Z,11.24
2023-04-10T13:32:10.568Z,11.37
2023-04-10T13:34:37.528Z,11.51
2023-04-10T13:37:04.411Z,12.24
2023-04-10T13:39:31.674Z,12.51
2023-04-10T13:41:58.990Z,12.57
2023-04-10T13:44:25.782Z,12.49
2023-04-10T13:46:52.485Z,12.68
2023-04-10T13:49:19.210Z,12.29
2023-04-10T13:51:46.484Z,11.98
2023-04-10T13:54:13.362Z,12.48
2023-04-10T13:56:40.035Z,12.91
2023-04-10T13:59:06.690Z,13.01
2023-04-10T14:01:33.371Z,12.97
2023-04-10T14:04:00.201Z,13.06
2023-04-10T14:06:26.945Z,13.07
2023-04-10T14:08:54.194Z,12.97
2023-04-10T14:11:21.690Z,13.44
2023-04-10T14:13:48.482Z,13.40
2023-04-10T14:16:15.168Z,13.65
2023-04-10T14:18:41.973Z,13.81
2023-04-10T14:21:08.932Z,13.49
2023-04-10T14:23:35.872Z,13.77
2023-04-10T14:26:02.647Z,13.11
2023-04-10T14:28:29.376Z,13.41
2023-04-10T14:30:56.030Z,13.54
2023-04-10T14:33:22.931Z,13.83
2023-04-10T14:35:49.559Z,14.49
2023-04-10T14:38:16.576Z,14.24
2023-04-10T14:40:43.401Z,14.33
2023-04-10T14:43:10.167Z,14.39
2023-04-10T14:45:36.924Z,14.37
2023-04-10T14:48:03.805Z,14.10
2023-04-10T14:50:33.361Z,14.34
2023-04-10T14:53:00.247Z,13.82
2023-04-10T14:55:29.250Z,13.77
2023-04-10T14:57:58.225Z,13.90
2023-04-10T15:00:25.471Z,14.17
2023-04-10T15:02:52.557Z,14.10
2023-04-10T15:05:19.502Z,14.03
2023-04-10T15:07:46.342Z,14.38
2023-04-10T15:10:12.993Z,13.73
2023-04-10T15:12:39.613Z,14.05
2023-04-10T15:15:07.289Z,14.81
2023-04-10T15:17:34.257Z,14.78
2023-04-10T15:20:01.019Z,14.49
2023-04-10T15:22:27.834Z,14.90
2023-04-10T15:24:54.502Z,15.86
2023-04-10T15:27:21.529Z,16.24
2023-04-10T15:29:48.805Z,16.54
2023-04-10T15:32:15.428Z,17.57
2023-04-10T15:34:42.313Z,18.34
2023-04-10T15:37:09.020Z,17.23
2023-04-10T15:39:36.075Z,15.74
2023-04-10T15:42:03.970Z,15.29
2023-04-10T15:44:31.576Z,15.34
2023-04-10T15:46:58.179Z,15.38
2023-04-10T15:49:36.175Z,14.89
2023-04-10T15:52:08.130Z,14.52
2023-04-10T15:54:35.505Z,14.71
2023-04-10T15:57:02.987Z,14.95
2023-04-10T15:59:29.735Z,15.16
2023-04-10T16:01:56.538Z,14.89
2023-04-10T16:04:23.439Z,14.68
2023-04-10T16:06:50.448Z,15.52
2023-04-10T16:09:25.360Z,15.52
2023-04-10T16:11:54.463Z,14.80
2023-04-10T16:14:21.228Z,14.82
2023-04-10T16:16:48.220Z,15.59
2023-04-10T16:19:14.978Z,15.41
2023-04-10T16:21:41.589Z,14.00
2023-04-10T16:24:08.334Z,14.61
2023-04-10T16:26:35.018Z,13.65
2023-04-10T16:29:01.622Z,13.96
2023-04-10T16:31:28.369Z,14.22
2023-04-10T16:33:55.022Z,14.15
2023-04-10T16:36:21.879Z,13.76
2023-04-10T16:38:48.632Z,13.98
2023-04-10T16:41:15.340Z,14.05
2023-04-10T16:43:41.993Z,13.42
2023-04-10T16:46:08.642Z,13.94
2023-04-10T16:48:36.329Z,13.97
2023-04-10T16:51:03.078Z,13.89
2023-04-10T16:53:29.708Z,13.86
2023-04-10T16:55:57.766Z,13.96
2023-04-10T16:58:25.144Z,13.54
2023-04-10T17:00:51.889Z,13.46
2023-04-10T17:03:18.554Z,13.68
2023-04-10T17:05:45.257Z,13.26
2023-04-10T17:08:11.979Z,13.22
2023-04-10T17:10:38.648Z,13.21
2023-04-10T17:13:05.313Z,13.40
2023-04-10T17:15:31.976Z,13.23
2023-04-10T17:17:58.590Z,13.37
2023-04-10T17:20:25.401Z,13.38
2023-04-10T17:22:52.102Z,13.10
2023-04-10T17:25:18.840Z,12.95
2023-04-10T17:27:45.491Z,12.99
2023-04-10T17:30:13.045Z,12.92
2023-04-10T17:32:39.740Z,13.39
2023-04-10T17:35:06.554Z,13.17
2023-04-10T17:37:33.249Z,13.62
2023-04-10T17:40:00.174Z,13.77
2023-04-10T17:42:26.959Z,13.92
2023-04-10T17:44:53.646Z,12.99
2023-04-10T17:47:20.343Z,12.35
2023-04-10T17:49:47.005Z,11.54
2023-04-10T17:52:13.679Z,11.72
2023-04-10T17:54:40.288Z,12.39
2023-04-10T17:57:06.958Z,12.22
2023-04-10T17:59:33.860Z,12.03
2023-04-10T18:02:00.506Z,12.46
2023-04-10T18:04:27.295Z,12.91
2023-04-10T18:06:54.055Z,12.59
2023-04-10T18:09:20.773Z,12.19
2023-04-10T18:11:48.035Z,11.95
2023-04-10T18:14:14.687Z,12.43
2023-04-10T18:16:41.436Z,11.86
2023-04-10T18:19:08.154Z,11.60
2023-04-10T18:21:34.811Z,11.90
2023-04-10T18:24:01.656Z,11.80
2023-04-10T18:26:31.716Z,12.09
2023-04-10T18:28:58.335Z,10.67
2023-04-10T18:31:25.006Z,11.21
2023-04-10T18:34:03.698Z,11.65
2023-04-10T18:36:34.256Z,11.68
2023-04-10T18:39:00.894Z,11.86
2023-04-10T18:41:27.513Z,11.73
2023-04-10T18:44:04.405Z,11.73
2023-04-10T18:46:31.965Z,12.10
2023-04-10T18:48:58.824Z,11.73
2023-04-10T18:51:25.428Z,11.39
2023-04-10T18:53:52.227Z,11.84
2023-04-10T18:56:18.946Z,12.26
2023-04-10T18:58:47.394Z,11.99
2023-04-10T19:01:15.768Z,11.48
2023-04-10T19:03:42.605Z,10.98
2023-04-10T19:06:09.380Z,11.27
2023-04-10T19:08:36.260Z,11.34
2023-04-10T19:11:07.419Z,10.32
2023-04-10T19:13:34.107Z,10.97
2023-04-10T19:16:04.216Z,11.06
2023-04-10T19:18:30.898Z,10.82
2023-04-10T19:20:59.189Z,11.04
2023-04-10T19:23:26.628Z,11.27
2023-04-10T19:25:54.104Z,11.51
2023-04-10T19:28:23.715Z,11.47
2023-04-10T19:30:50.588Z,11.38
2023-04-10T19:33:17.380Z,11.47
2023-04-10T19:35:44.416Z,11.47
2023-04-10T19:38:14.308Z,11.63
2023-04-10T19:40:40.952Z,11.45
2023-04-10T19:43:07.657Z,10.17
2023-04-10T19:45:37.168Z,9.93
2023-04-10T19:48:03.968Z,10.35
2023-04-10T19:50:30.682Z,10.36
2023-04-10T19:52:58.098Z,10.41
2023-04-10T19:55:25.018Z,10.63
2023-04-10T19:57:52.323Z,10.54
2023-04-10T20:00:19.293Z,10.58
2023-04-10T20:02:46.190Z,10.81
2023-04-10T20:05:13.097Z,10.78
2023-04-10T20:07:40.037Z,10.63
2023-04-10T20:10:07.168Z,10.60
2023-04-10T20:12:34.043Z,10.63
2023-04-10T20:15:01.734Z,10.30
2023-04-10T20:17:29.192Z,10.16
2023-04-10T20:19:56.377Z,10.13
2023-04-10T20:22:23.048Z,10.41
2023-04-10T20:24:49.682Z,10.53
2023-04-10T20:27:16.506Z,10.62
2023-04-10T20:29:43.155Z,10.75
2023-04-10T20:32:09.825Z,10.80
2023-04-10T20:34:37.363Z,10.83
2023-04-10T20:37:04.696Z,10.76
2023-04-10T20:39:32.676Z,10.58
2023-04-10T20:41:59.427Z,10.38
2023-04-10T20:44:26.162Z,10.46
2023-04-10T20:46:52.852Z,10.44
2023-04-10T20:49:19.520Z,10.50
2023-04-10T20:51:46.984Z,10.65
2023-04-10T20:54:13.698Z,10.60
2023-04-10T20:56:43.288Z,10.30
2023-04-10T20:59:11.041Z,9.93
2023-04-10T21:01:37.922Z,9.54
2023-04-10T21:04:04.948Z,9.51
2023-04-10T21:06:35.019Z,9.72
2023-04-10T21:09:01.623Z,9.50
2023-04-10T21:11:28.270Z,9.36
2023-04-10T21:13:55.122Z,9.40
2023-04-10T21:16:23.023Z,9.61
2023-04-10T21:18:49.728Z,9.43
2023-04-10T21:21:16.425Z,9.40
2023-04-10T21:23:43.041Z,9.61
2023-04-10T21:26:09.918Z,9.75
2023-04-10T21:28:36.602Z,9.60
2023-04-10T21:31:03.252Z,9.51
2023-04-10T21:33:31.789Z,9.46
2023-04-10T21:35:58.392Z,9.29
2023-04-10T21:38:25.159Z,9.28
2023-04-10T21:40:52.890Z,9.06
2023-04-10T21:43:20.723Z,8.92
2023-04-10T21:45:47.493Z,8.71
2023-04-10T21:48:14.194Z,8.85
2023-04-10T21:50:41.078Z,8.84
2023-04-10T21:53:07.925Z,8.84
2023-04-10T21:55:34.569Z,8.90
2023-04-10T21:58:01.239Z,8.81
2023-04-10T22:00:28.021Z,8.75
2023-04-10T22:02:54.987Z,8.74
2023-04-10T22:05:22.370Z,8.76
2023-04-10T22:07:49.027Z,8.51
2023-04-10T22:10:15.766Z,8.39
2023-04-10T22:12:42.470Z,8.46
2023-04-10T22:15:09.910Z,8.31
2023-04-10T22:17:36.555Z,8.38
2023-04-10T22:20:03.524Z,8.31
2023-04-10T22:22:30.148Z,8.26
2023-04-10T22:24:56.837Z,8.29
2023-04-10T22:27:23.843Z,8.22
2023-04-10T22:30:02.220Z,8.52
2023-04-10T22:32:30.361Z,8.32
2023-04-10T22:34:58.790Z,8.07
2023-04-10T22:37:26.337Z,7.91
2023-04-10T22:39:53.022Z,7.64
2023-04-10T22:42:19.669Z,7.55
2023-04-10T22:44:46.388Z,7.59
2023-04-10T22:47:13.146Z,7.53
2023-04-10T22:49:39.819Z,7.25
2023-04-10T22:52:07.617Z,7.66
2023-04-10T22:54:34.307Z,7.81
2023-04-10T22:57:00.961Z,7.91
2023-04-10T22:59:27.570Z,7.95
2023-04-10T23:01:54.467Z,8.07
2023-04-10T23:04:21.406Z,8.14
2023-04-10T23:06:48.185Z,8.08
2023-04-10T23:09:17.952Z,8.08
2023-04-10T23:11:44.579Z,7.78
2023-04-10T23:14:11.355Z,7.90
2023-04-10T23:16:38.105Z,7.84
2023-04-10T23:19:04.889Z,7.86
2023-04-10T23:21:31.477Z,8.01
2023-04-10T23:23:58.374Z,7.99
2023-04-10T23:26:24.997Z,8.02
2023-04-10T23:28:51.702Z,7.82
2023-04-10T23:31:18.458Z,7.55
2023-04-10T23:33:45.730Z,7.56
2023-04-10T23:36:12.556Z,7.27
2023-04-10T23:38:39.189Z,7.26
2023-04-10T23:41:06.051Z,7.51
2023-04-10T23:43:33.376Z,7.56
2023-04-10T23:46:00.541Z,7.50
2023-04-10T23:48:27.178Z,7.41
2023-04-10T23:51:02.728Z,7.31
2023-04-10T23:53:29.400Z,7.08
2023-04-10T23:55:56.052Z,6.95
2023-04-10T23:58:22.737Z,7.12
